Aviation Digital Data Service (ADDS)

Output produced by METARs form (2207 UTC 18 January 2017)
found at http://aviationweather.gov/adds/metars/
 
KMFD 182149Z 1822/1918 22006KT 3SM BR OVC005 
     FM191400 21005KT P6SM OVC008 
     FM191600 18005KT P6SM SCT010